Terminal Aerodrome Forecast
Issued by NWS

Home | Current Version | Previous Version | Text Only | Print | Product List | Glossary On
Versions: 1 2 3 4 5 6 7 8 9 10 11 12 13 14 15 16 17 18 19
078
FTUS43 KEAX 251529 AAA
TAFSTJ
TAF AMD
KSTJ 251529Z 2515/2612 16010KT P6SM VCSH SCT040 OVC100
      TEMPO 2516/2517 -TSRA BKN040CB
     FM251700 19011KT P6SM SCT040 BKN100=

USA.gov is the U.S. government's official web portal to all federal, state and local government web resources and services.